MATRIX1 EFRO-EFRO

Flight info

Callsign MATRIX1
Flight time 0h 31m
Altitude 4000
Route ROAP
Aircraft F18/M-SDGIRUY/C

Departure

Time 2026-04-27 15:15
Airport Rovaniemi Airport (EFRO)

Arrival

Time 2026-04-27 15:47
Airport Rovaniemi Airport (EFRO)
Time Latitude Longitude Altitude Speed Heading
2026-04-27 15:08 66.56984 25.83193 651 ft 0 kts 262°
2026-04-27 15:12 66.56984 25.83190 651 ft 0 kts 262°
2026-04-27 15:12 66.56980 25.83168 652 ft 3 kts 227°
2026-04-27 15:13 66.56929 25.83139 650 ft 6 kts 226°
2026-04-27 15:13 66.56840 25.83005 652 ft 26 kts 217°
2026-04-27 15:13 66.56685 25.82712 649 ft 30 kts 217°
2026-04-27 15:13 66.56510 25.82383 648 ft 33 kts 216°
2026-04-27 15:14 66.56316 25.82004 641 ft 37 kts 218°
2026-04-27 15:14 66.56093 25.81598 631 ft 39 kts 205°
2026-04-27 15:14 66.55914 25.81439 631 ft 17 kts 178°
2026-04-27 15:14 66.55824 25.81623 636 ft 17 kts 122°
2026-04-27 15:15 66.55813 25.81760 639 ft 0 kts 37°
2026-04-27 15:15 66.55819 25.81771 641 ft 15 kts 37°
2026-04-27 15:15 66.56509 25.83108 873 ft 223 kts 35°
2026-04-27 15:15 66.57794 25.85773 2595 ft 246 kts 36°
2026-04-27 15:16 66.59218 25.88113 3828 ft 262 kts 15°
2026-04-27 15:16 66.61082 25.87227 3793 ft 299 kts 329°
2026-04-27 15:16 66.62101 25.82694 4044 ft 315 kts 278°
2026-04-27 15:16 66.61497 25.77095 4028 ft 358 kts 244°
2026-04-27 15:17 66.59908 25.71868 3965 ft 390 kts 232°
2026-04-27 15:17 66.58080 25.66392 4057 ft 428 kts 232°
2026-04-27 15:17 66.56110 25.60487 3986 ft 452 kts 232°
2026-04-27 15:17 66.54068 25.54370 3985 ft 462 kts 232°
2026-04-27 15:18 66.51864 25.48419 3964 ft 468 kts 224°
2026-04-27 15:18 66.49517 25.43115 3969 ft 431 kts 224°
2026-04-27 15:18 66.47338 25.39477 3897 ft 353 kts 186°
2026-04-27 15:18 66.45415 25.41601 3740 ft 286 kts 120°
2026-04-27 15:19 66.44296 25.45446 3528 ft 262 kts 120°
2026-04-27 15:19 66.43273 25.48972 3435 ft 239 kts 119°
2026-04-27 15:19 66.42583 25.52461 3093 ft 212 kts 84°
2026-04-27 15:19 66.42937 25.55786 3001 ft 196 kts 57°
2026-04-27 15:20 66.43724 25.58571 2925 ft 200 kts 42°
2026-04-27 15:20 66.44795 25.60923 2707 ft 208 kts 36°
2026-04-27 15:20 66.45930 25.63238 2395 ft 218 kts 36°
2026-04-27 15:20 66.47086 25.65596 2386 ft 207 kts 36°
2026-04-27 15:21 66.48240 25.67899 2066 ft 216 kts 34°
2026-04-27 15:21 66.49443 25.70076 1901 ft 216 kts 32°
2026-04-27 15:21 66.50625 25.72067 1921 ft 194 kts 31°
2026-04-27 15:21 66.51667 25.74053 1552 ft 180 kts 34°
2026-04-27 15:22 66.52618 25.75853 1280 ft 156 kts 31°
2026-04-27 15:22 66.53374 25.77284 1101 ft 133 kts 30°
2026-04-27 15:22 66.54143 25.78655 982 ft 137 kts 27°
2026-04-27 15:22 66.54940 25.80122 817 ft 145 kts 32°
2026-04-27 15:23 66.55774 25.81694 637 ft 141 kts 36°
2026-04-27 15:23 66.56614 25.83329 917 ft 206 kts 38°
2026-04-27 15:23 66.57855 25.85963 2779 ft 261 kts 37°
2026-04-27 15:23 66.59555 25.88523 3680 ft 304 kts 14°
2026-04-27 15:24 66.61589 25.88323 3781 ft 290 kts 341°
2026-04-27 15:24 66.63053 25.85131 3793 ft 281 kts 302°
2026-04-27 15:24 66.63166 25.80464 3899 ft 272 kts 255°
2026-04-27 15:24 66.62002 25.76762 3966 ft 278 kts 227°
2026-04-27 15:25 66.60528 25.73131 4017 ft 331 kts 227°
2026-04-27 15:25 66.58685 25.68471 3980 ft 417 kts 227°
2026-04-27 15:25 66.56492 25.62856 3962 ft 473 kts 227°
2026-04-27 15:25 66.54142 25.56841 3971 ft 486 kts 227°
2026-04-27 15:26 66.51776 25.50809 4001 ft 482 kts 227°
2026-04-27 15:26 66.49486 25.45001 3996 ft 443 kts 227°
2026-04-27 15:26 66.47426 25.39951 3999 ft 390 kts 220°
2026-04-27 15:26 66.45103 25.38503 3978 ft 325 kts 162°
2026-04-27 15:27 66.43712 25.41706 3841 ft 248 kts 115°
2026-04-27 15:27 66.42874 25.45078 3731 ft 210 kts 114°
2026-04-27 15:27 66.42114 25.48116 3572 ft 217 kts 112°
2026-04-27 15:27 66.41709 25.52048 3484 ft 255 kts 84°
2026-04-27 15:28 66.42214 25.56497 3403 ft 267 kts 38°
2026-04-27 15:28 66.43688 25.59175 3293 ft 259 kts 33°
2026-04-27 15:28 66.45141 25.61769 3205 ft 255 kts 33°
2026-04-27 15:28 66.46568 25.64412 2995 ft 257 kts 34°
2026-04-27 15:29 66.47915 25.67066 2617 ft 233 kts 35°
2026-04-27 15:29 66.49118 25.69432 2246 ft 205 kts 34°
2026-04-27 15:29 66.50180 25.71349 1978 ft 173 kts 32°
2026-04-27 15:29 66.51062 25.73006 1778 ft 146 kts 32°
2026-04-27 15:30 66.51920 25.74536 1581 ft 155 kts 32°
2026-04-27 15:30 66.52778 25.76110 1342 ft 150 kts 33°
2026-04-27 15:30 66.53626 25.77578 1112 ft 147 kts 32°
2026-04-27 15:30 66.54392 25.79075 926 ft 139 kts 31°
2026-04-27 15:31 66.55182 25.80587 722 ft 149 kts 33°
2026-04-27 15:31 66.55930 25.81978 641 ft 107 kts 39°
2026-04-27 15:31 66.56885 25.83845 1088 ft 243 kts 36°
2026-04-27 15:31 66.58198 25.86473 2391 ft 235 kts 35°
2026-04-27 15:32 66.59574 25.88232 3631 ft 219 kts
2026-04-27 15:32 66.61245 25.88035 3958 ft 272 kts 345°
2026-04-27 15:32 66.63027 25.85348 3915 ft 329 kts 320°
2026-04-27 15:32 66.64416 25.80247 3878 ft 381 kts 297°
2026-04-27 15:33 66.65063 25.73360 3841 ft 428 kts 277°
2026-04-27 15:33 66.64730 25.65640 3748 ft 451 kts 256°
2026-04-27 15:33 66.63249 25.58784 3549 ft 445 kts 232°
2026-04-27 15:33 66.60859 25.54059 3646 ft 432 kts 207°
2026-04-27 15:34 66.58200 25.51091 4028 ft 417 kts 205°
2026-04-27 15:34 66.55516 25.48105 4039 ft 445 kts 205°
2026-04-27 15:34 66.52443 25.44640 4012 ft 500 kts 205°
2026-04-27 15:34 66.49443 25.41268 3987 ft 439 kts 205°
2026-04-27 15:35 66.46773 25.38851 4007 ft 378 kts 179°
2026-04-27 15:35 66.44904 25.41613 4008 ft 286 kts 117°
2026-04-27 15:35 66.43889 25.45599 4001 ft 264 kts 116°
2026-04-27 15:35 66.42915 25.49442 3997 ft 259 kts 116°
2026-04-27 15:36 66.42051 25.53280 3974 ft 245 kts 94°
2026-04-27 15:36 66.42610 25.56805 4116 ft 226 kts 33°
2026-04-27 15:36 66.43941 25.59287 3834 ft 253 kts 34°
2026-04-27 15:36 66.45395 25.62072 3417 ft 271 kts 35°
2026-04-27 15:37 66.46856 25.64915 2950 ft 257 kts 35°
2026-04-27 15:37 66.48203 25.67614 2485 ft 240 kts 36°
2026-04-27 15:37 66.49351 25.69942 2054 ft 226 kts 36°
2026-04-27 15:37 66.50538 25.72284 1801 ft 217 kts 33°
2026-04-27 15:38 66.51743 25.74516 1535 ft 220 kts 33°
2026-04-27 15:38 66.53004 25.76671 1268 ft 223 kts 31°
2026-04-27 15:38 66.54303 25.78909 993 ft 226 kts 35°
2026-04-27 15:38 66.55479 25.81146 668 ft 197 kts 33°
2026-04-27 15:39 66.56611 25.83324 1135 ft 242 kts 36°
2026-04-27 15:39 66.57995 25.86013 2089 ft 260 kts 34°
2026-04-27 15:39 66.59457 25.88844 2360 ft 266 kts 35°
2026-04-27 15:39 66.60560 25.92623 2787 ft 277 kts 69°
2026-04-27 15:40 66.60470 25.97506 3228 ft 302 kts 109°
2026-04-27 15:40 66.58985 26.01188 3596 ft 317 kts 160°
2026-04-27 15:40 66.56846 26.00397 4055 ft 327 kts 213°
2026-04-27 15:40 66.55038 25.97008 4070 ft 321 kts 220°
2026-04-27 15:41 66.53261 25.93569 4010 ft 324 kts 220°
2026-04-27 15:41 66.51290 25.89713 4010 ft 392 kts 220°
2026-04-27 15:41 66.48986 25.85155 4009 ft 451 kts 220°
2026-04-27 15:41 66.46537 25.80294 4009 ft 450 kts 220°
2026-04-27 15:42 66.44091 25.75460 3997 ft 448 kts 220°
2026-04-27 15:42 66.41729 25.70815 3980 ft 404 kts 220°
2026-04-27 15:42 66.39650 25.66777 3950 ft 346 kts 220°
2026-04-27 15:42 66.38496 25.62714 3635 ft 290 kts 276°
2026-04-27 15:43 66.39124 25.58250 3569 ft 276 kts 301°
2026-04-27 15:43 66.40228 25.54824 3456 ft 232 kts 339°
2026-04-27 15:43 66.41754 25.54751 3365 ft 234 kts 25°
2026-04-27 15:43 66.43023 25.57272 2961 ft 234 kts 37°
2026-04-27 15:44 66.44253 25.59907 2769 ft 236 kts 38°
2026-04-27 15:44 66.45516 25.62437 2649 ft 233 kts 35°
2026-04-27 15:44 66.46784 25.64945 2634 ft 232 kts 35°
2026-04-27 15:44 66.48053 25.67441 2607 ft 230 kts 34°
2026-04-27 15:45 66.49293 25.69765 2225 ft 212 kts 32°
2026-04-27 15:45 66.50387 25.71746 1884 ft 176 kts 32°
2026-04-27 15:45 66.51294 25.73352 1625 ft 144 kts 30°
2026-04-27 15:45 66.52103 25.74808 1477 ft 145 kts 31°
2026-04-27 15:46 66.52902 25.76287 1341 ft 144 kts 32°
2026-04-27 15:46 66.53715 25.77820 1176 ft 151 kts 32°
2026-04-27 15:46 66.54535 25.79362 908 ft 157 kts 31°
2026-04-27 15:46 66.55364 25.80909 681 ft 139 kts 33°
2026-04-27 15:47 66.56019 25.82166 637 ft 102 kts 36°
2026-04-27 15:47 66.56510 25.83091 632 ft 70 kts 36°
2026-04-27 15:47 66.56692 25.83368 638 ft 21 kts
2026-04-27 15:47 66.56829 25.83330 640 ft 19 kts 352°
2026-04-27 15:48 66.56957 25.83285 647 ft 17 kts 354°
2026-04-27 15:48 66.57021 25.83240 651 ft 5 kts 287°
2026-04-27 15:48 66.57020 25.83193 652 ft 0 kts 262°